This is the latest recevied weather packets stored in our database for station/object SQ7ACP-3. If no packets are shown the sender has not sent any weather packets the latest 1 day(s).
| Time | Temp. | Humidity | Pressure | Rain* | Wind** | Luminosity | Snow |
|---|---|---|---|---|---|---|---|
| 1777983802 | 26.67° C | 26% | 1006.5 hPa | 0 mm | 2.68 m/s, 188° | - | - |
| 1777983204 | 26.11° C | 24% | 1006.5 hPa | 0 mm | 1.34 m/s, 198° | - | - |
| 1777982590 | 26.11° C | 23% | 1006.6 hPa | 0 mm | 0.45 m/s, 182° | - | - |
| 1777981977 | 26.11° C | 24% | 1006.8 hPa | 0 mm | 2.68 m/s, 181° | - | - |
| 1777981373 | 25.56° C | 23% | 1006.8 hPa | 0 mm | 3.58 m/s, 181° | - | - |
| 1777980762 | 26.67° C | 22% | 1006.7 hPa | 0 mm | 2.24 m/s, 200° | - | - |
| 1777980143 | 26.11° C | 23% | 1006.8 hPa | 0 mm | 3.58 m/s, 183° | - | - |
| 1777979531 | 26.11° C | 23% | 1007 hPa | 0 mm | 2.68 m/s, 186° | - | - |
| 1777978915 | 26.67° C | 24% | 1007 hPa | 0 mm | 2.24 m/s, 186° | - | - |
| 1777978303 | 26.11° C | 26% | 1007.2 hPa | 0 mm | 0.45 m/s, 192° | - | - |
| 1777977091 | 25.56° C | 27% | 1007.4 hPa | 0 mm | 2.68 m/s, 188° | - | - |
| 1777975218 | 25.56° C | 33% | 1007.9 hPa | 0 mm | 1.79 m/s, 194° | - | - |
| 1777974615 | 25.56° C | 32% | 1008.1 hPa | 0 mm | 1.34 m/s, 175° | - | - |
| 1777974007 | 25° C | 32% | 1008.1 hPa | 0 mm | 0.45 m/s, 182° | - | - |
| 1777972765 | 24.44° C | 33% | 1008.3 hPa | 0 mm | 2.68 m/s, 204° | - | - |
| 1777971541 | 24.44° C | 34% | 1008.5 hPa | 0 mm | 0 m/s | - | - |
| 1777970941 | 23.33° C | 35% | 1008.6 hPa | 0 mm | 1.79 m/s, 186° | - | - |
| 1777970327 | 23.89° C | 35% | 1008.7 hPa | 0 mm | 2.68 m/s, 182° | - | - |
| 1777969718 | 23.33° C | 36% | 1008.8 hPa | 0 mm | 1.79 m/s, 180° | - | - |
| 1777969105 | 22.22° C | 37% | 1008.9 hPa | 0 mm | 1.34 m/s, 209° | - | - |
| 1777968503 | 22.22° C | 37% | 1008.9 hPa | 0 mm | 1.34 m/s, 177° | - | - |
| 1777967899 | 21.67° C | 38% | 1009 hPa | 0 mm | 2.68 m/s, 186° | - | - |
| 1777967290 | 21.11° C | 38% | 1009 hPa | 0 mm | 1.34 m/s, 198° | - | - |
| 1777966683 | 20.56° C | 39% | 1009.1 hPa | 0 mm | 1.79 m/s, 191° | - | - |
| 1777966082 | 20° C | 39% | 1009.1 hPa | 0 mm | 1.34 m/s, 203° | - | - |
* Rain latest hour (hover to see other rain measurements)
** Current wind speed in m/s (hover to see current wind gust speed)